Ouro Preto, Brazil
Current Conditions -  °F | °C
As of 2:00 PM on Tuesday 27 Jan 2015 (Local Time) from SBBH Reporting Station
Broken Clouds Broken Clouds  
Wind Chill: 82°   Ceiling: 10000
Heat Index: 83°   Visibility: 6mi
Dew Point: 63°   Wind: 3mph
Humidity: 51%   Direction: 320°NW
Pressure: 30.06"   Gusts: NA
Location:  20.29°S, 43.51°W
Report Text: SBBH 271600Z 32003KT 9999 FEW040 BKN100 28/17 Q1018
Loading
Personal Weather Stations






























Interactive Weather Map New forecast layout! Learn more

10-Day Weather Forecast

Advertisements
Track Severe Weather on mobile